Gdf Suez North Sea — HPSQ — position and weather

sailwx.info

Track history (hours):
 
Tides and Currents Weather Stations Pressure Air Temp Water Temp Dewpoint Dewpoint Depression Visibility Wind Speed Wind Dir Waves Ship Positions

Gdf Suez North Sea

Last reported at 2014-Oct-19 20:33 UTC. Time now 2014-Oct-21 18:34 UTC.
Position N 34°57' E 120°01'.

Length 190 m; draft 8.9 m.

Type: Ship. MMSI: 373341000.

Date/timePositionNaut miles runAvg speedWind from/ knotsBaromVisibWave heightAir tempDewpointWater temp
2014-Oct-19 20:33N 34°57' E 120°01'1611.7
2014-Oct-19 19:10N 34°50' E 119°43'5 8.9
2014-Oct-19 18:33N 34°47' E 119°37'8 7.9
2014-Oct-19 17:33N 34°45' E 119°28'0 0.4
2014-Oct-19 16:31N 34°44' E 119°28'0 0.0
2014-Oct-19 15:31N 34°44' E 119°28'0 0.0
2014-Oct-19 14:31N 34°44' E 119°28'0 0.0
2014-Oct-19 13:31N 34°44' E 119°28'0 0.0
2014-Oct-19 12:31N 34°44' E 119°28'0 0.0
2014-Oct-19 11:31N 34°44' E 119°28'0 0.0
2014-Oct-19 10:31N 34°44' E 119°28'0 0.0
2014-Oct-19 09:25N 34°44' E 119°28'0 0.0
2014-Oct-19 08:31N 34°44' E 119°28'0 0.0
2014-Oct-19 07:31N 34°44' E 119°28'0 0.0
2014-Oct-19 06:31N 34°44' E 119°28'0 0.0
2014-Oct-19 05:31N 34°44' E 119°28'0 0.0
2014-Oct-19 04:31N 34°44' E 119°28'0 0.0
2014-Oct-19 03:25N 34°44' E 119°28'0 0.0
2014-Oct-19 02:31N 34°44' E 119°28'0 0.0
2014-Oct-19 01:31N 34°44' E 119°28'0 0.0
2014-Oct-19 00:31N 34°44' E 119°28'0 0.0
2014-Oct-18 23:25N 34°44' E 119°28'0 0.0
2014-Oct-18 22:31N 34°44' E 119°28'0 0.0
2014-Oct-18 21:31N 34°44' E 119°28'0 0.0
2014-Oct-18 20:31N 34°44' E 119°28'0 0.0
2014-Oct-18 19:31N 34°44' E 119°28'0 0.0
2014-Oct-18 18:31N 34°44' E 119°28'1 1.2
2014-Oct-18 17:33N 34°44' E 119°29'9 9.0
2014-Oct-18 16:32N 34°48' E 119°40'7 6.7
2014-Oct-18 15:33N 34°50' E 119°47'1111.4
2014-Oct-18 14:33N 34°55' E 119°60'1212.3
2014-Oct-18 13:33N 34°53' E 120°15'1412.2
2014-Oct-18 12:24N 34°50' E 120°31'2111.5
2014-Oct-18 10:33N 34°46' E 120°57'2411.8
2014-Oct-18 08:30N 34°42' E 121°26'1211.6
2014-Oct-18 07:25N 34°40' E 121°41'6911.3
2014-Oct-18 01:21N 34°06' E 122°53'1212.5
2014-Oct-18 00:25N 33°56' E 123°01'2312.3
2014-Oct-17 22:33N 33°37' E 123°17'5212.0
2014-Oct-17 18:15N 32°55' E 123°54'57011.0
2014-Oct-15 14:27N 24°05' E 119°56'7110.3
2014-Oct-15 07:33N 22°54' E 119°57'1312.6
2014-Oct-15 06:33N 22°44' E 120°05'1212.1
2014-Oct-15 05:33N 22°34' E 120°13'5 5.2
2014-Oct-15 04:33N 22°34' E 120°18'2 1.5
2014-Oct-15 03:27N 22°36' E 120°17'0 0.0
2014-Oct-15 02:33N 22°36' E 120°17'0 0.0
2014-Oct-15 01:33N 22°36' E 120°17'0 0.0
2014-Oct-15 00:27N 22°36' E 120°17'0 0.0
2014-Oct-14 23:33N 22°36' E 120°17'0 0.0
2014-Oct-14 22:32N 22°36' E 120°17'0 0.0
2014-Oct-14 21:33N 22°36' E 120°17'0 0.0
2014-Oct-14 20:33N 22°36' E 120°17'0 0.0
2014-Oct-14 15:15N 22°36' E 120°17'0 0.0
2014-Oct-14 13:33N 22°36' E 120°17'0 0.0
2014-Oct-14 10:33N 22°36' E 120°17'0 0.0
2014-Oct-14 09:32N 22°36' E 120°17'0 0.0
2014-Oct-14 08:27N 22°36' E 120°17'0 0.0
2014-Oct-14 07:33N 22°36' E 120°17'0 0.0
2014-Oct-14 05:33N 22°36' E 120°17'0 0.0
2014-Oct-14 04:33N 22°36' E 120°17'0 0.0
2014-Oct-14 03:33N 22°36' E 120°17'0 0.0
2014-Oct-14 02:33N 22°36' E 120°17'3 2.9
2014-Oct-14 01:33N 22°37' E 120°15'6 6.4
2014-Oct-14 00:33N 22°37' E 120°08'1512.6
2014-Oct-13 23:23N 22°34' E 119°52'6710.8
2014-Oct-13 17:08N 22°20' E 118°41'711.3
2014-Oct-13 16:30N 22°18' E 118°33'25810.3
2014-Oct-12 15:27N 22°06' E 113°55'7 7.8
2014-Oct-12 14:33N 22°09' E 113°48'1010.2
2014-Oct-12 13:33N 22°19' E 113°48'1110.9
2014-Oct-12 12:33N 22°30' E 113°45'1211.9
2014-Oct-12 11:33N 22°41' E 113°41'1110.8
2014-Oct-12 10:33N 22°50' E 113°35'10 9.9
2014-Oct-12 09:33N 22°60' E 113°32'4 3.4
2014-Oct-12 08:26N 23°03' E 113°30'0 0.0
2014-Oct-12 07:26N 23°03' E 113°30'0 0.0
2014-Oct-12 06:32N 23°03' E 113°30'0 0.0
2014-Oct-12 05:14N 23°03' E 113°30'0 0.0
2014-Oct-12 04:32N 23°03' E 113°30'0 0.0
2014-Oct-12 03:32N 23°03' E 113°30'0 0.0
2014-Oct-12 02:26N 23°03' E 113°30'0 0.0
2014-Oct-12 01:20N 23°03' E 113°30'0 0.0
2014-Oct-12 00:32N 23°03' E 113°30'0 0.0
2014-Oct-11 23:32N 23°03' E 113°30'0 0.0
2014-Oct-11 22:32N 23°03' E 113°30'0 0.0
2014-Oct-11 21:32N 23°03' E 113°30'0 0.0
2014-Oct-11 20:32N 23°03' E 113°30'0 0.0
2014-Oct-11 19:32N 23°03' E 113°30'0 0.0
2014-Oct-11 18:32N 23°03' E 113°30'0 0.0
2014-Oct-11 17:26N 23°03' E 113°30'0 0.0
2014-Oct-11 16:26N 23°03' E 113°30'0 0.0
2014-Oct-11 15:32N 23°03' E 113°30'0 0.0
2014-Oct-11 14:14N 23°03' E 113°30'0 0.0
2014-Oct-11 13:32N 23°03' E 113°30'0 0.0
2014-Oct-11 12:32N 23°03' E 113°30'0 0.0
2014-Oct-11 11:20N 23°03' E 113°30'0 0.0
2014-Oct-11 10:08N 23°03' E 113°30'0 0.0
2014-Oct-11 09:26N 23°03' E 113°30'0 0.0
2014-Oct-11 08:32N 23°03' E 113°30'0 0.0
2014-Oct-11 07:32N 23°03' E 113°30'0 0.0
2014-Oct-11 06:26N 23°03' E 113°30'0 0.0
2014-Oct-11 05:20N 23°03' E 113°30'0 0.0
2014-Oct-11 04:26N 23°03' E 113°30'0 0.0
2014-Oct-11 03:32N 23°03' E 113°30'0 0.0
2014-Oct-11 02:26N 23°03' E 113°30'0 0.0
2014-Oct-11 01:26N 23°03' E 113°30'0 0.0
2014-Oct-11 00:32N 23°03' E 113°30'0 0.0
2014-Oct-10 23:32N 23°03' E 113°30'0 0.0
2014-Oct-10 22:32N 23°03' E 113°30'0 0.0
2014-Oct-10 21:32N 23°03' E 113°30'0 0.0
2014-Oct-10 20:26N 23°03' E 113°30'0 0.0
2014-Oct-10 19:26N 23°03' E 113°30'0 0.0
2014-Oct-10 18:26N 23°03' E 113°30'0 0.0
2014-Oct-10 17:26N 23°03' E 113°30'0 0.0
2014-Oct-10 16:32N 23°03' E 113°30'0 0.0
2014-Oct-10 15:20N 23°03' E 113°30'0 0.0
2014-Oct-10 14:32N 23°03' E 113°30'0 0.0
2014-Oct-10 13:26N 23°03' E 113°30'0 0.0
2014-Oct-10 12:32N 23°03' E 113°30'0 0.0
2014-Oct-10 11:26N 23°03' E 113°30'0 0.0
2014-Oct-10 10:32N 23°03' E 113°30'0 0.0
2014-Oct-10 09:20N 23°03' E 113°30'1 1.4
2014-Oct-10 08:32N 23°02' E 113°31'8 8.4
2014-Oct-10 07:33N 22°54' E 113°34'10 9.7
2014-Oct-10 06:33N 22°46' E 113°39'1110.8
2014-Oct-10 05:30N 22°35' E 113°43'1111.9
2014-Oct-10 04:33N 22°24' E 113°46'1010.3
2014-Oct-10 03:33N 22°14' E 113°48'8 7.8
2014-Oct-10 02:33N 22°06' E 113°50'5 5.1
2014-Oct-10 01:33N 22°04' E 113°54'0 0.0
2014-Oct-09 23:15N 22°04' E 113°54'0 0.0
2014-Oct-09 22:33N 22°04' E 113°54'0 0.1
2014-Oct-09 21:27N 22°04' E 113°55'  
Track history (hours):
 
Tides and Currents Weather Stations Pressure Air Temp Water Temp Dewpoint Dewpoint Depression Visibility Wind Speed Wind Dir Waves Ship Positions

Gdf Suez North Sea

Last reported at 2014-Oct-19 20:33 UTC. Time now 2014-Oct-21 18:34 UTC.
Position N 34°57' E 120°01'.

Length 190 m; draft 8.9 m.

Type: Ship. MMSI: 373341000.

Date/timePositionNaut miles runAvg speedWind from/ knotsBaromVisibWave heightAir tempDewpointWater temp
2014-Oct-19 20:33N 34°57' E 120°01'1611.7
2014-Oct-19 19:10N 34°50' E 119°43'5 8.9
2014-Oct-19 18:33N 34°47' E 119°37'8 7.9
2014-Oct-19 17:33N 34°45' E 119°28'0 0.4
2014-Oct-19 16:31N 34°44' E 119°28'0 0.0
2014-Oct-19 15:31N 34°44' E 119°28'0 0.0
2014-Oct-19 14:31N 34°44' E 119°28'0 0.0
2014-Oct-19 13:31N 34°44' E 119°28'0 0.0
2014-Oct-19 12:31N 34°44' E 119°28'0 0.0
2014-Oct-19 11:31N 34°44' E 119°28'0 0.0
2014-Oct-19 10:31N 34°44' E 119°28'0 0.0
2014-Oct-19 09:25N 34°44' E 119°28'0 0.0
2014-Oct-19 08:31N 34°44' E 119°28'0 0.0
2014-Oct-19 07:31N 34°44' E 119°28'0 0.0
2014-Oct-19 06:31N 34°44' E 119°28'0 0.0
2014-Oct-19 05:31N 34°44' E 119°28'0 0.0
2014-Oct-19 04:31N 34°44' E 119°28'0 0.0
2014-Oct-19 03:25N 34°44' E 119°28'0 0.0
2014-Oct-19 02:31N 34°44' E 119°28'0 0.0
2014-Oct-19 01:31N 34°44' E 119°28'0 0.0
2014-Oct-19 00:31N 34°44' E 119°28'0 0.0
2014-Oct-18 23:25N 34°44' E 119°28'0 0.0
2014-Oct-18 22:31N 34°44' E 119°28'0 0.0
2014-Oct-18 21:31N 34°44' E 119°28'0 0.0
2014-Oct-18 20:31N 34°44' E 119°28'0 0.0
2014-Oct-18 19:31N 34°44' E 119°28'0 0.0
2014-Oct-18 18:31N 34°44' E 119°28'1 1.2
2014-Oct-18 17:33N 34°44' E 119°29'9 9.0
2014-Oct-18 16:32N 34°48' E 119°40'7 6.7
2014-Oct-18 15:33N 34°50' E 119°47'1111.4
2014-Oct-18 14:33N 34°55' E 119°60'1212.3
2014-Oct-18 13:33N 34°53' E 120°15'1412.2
2014-Oct-18 12:24N 34°50' E 120°31'2111.5
2014-Oct-18 10:33N 34°46' E 120°57'2411.8
2014-Oct-18 08:30N 34°42' E 121°26'1211.6
2014-Oct-18 07:25N 34°40' E 121°41'6911.3
2014-Oct-18 01:21N 34°06' E 122°53'1212.5
2014-Oct-18 00:25N 33°56' E 123°01'2312.3
2014-Oct-17 22:33N 33°37' E 123°17'5212.0
2014-Oct-17 18:15N 32°55' E 123°54'57011.0
2014-Oct-15 14:27N 24°05' E 119°56'7110.3
2014-Oct-15 07:33N 22°54' E 119°57'1312.6
2014-Oct-15 06:33N 22°44' E 120°05'1212.1
2014-Oct-15 05:33N 22°34' E 120°13'5 5.2
2014-Oct-15 04:33N 22°34' E 120°18'2 1.5
2014-Oct-15 03:27N 22°36' E 120°17'0 0.0
2014-Oct-15 02:33N 22°36' E 120°17'0 0.0
2014-Oct-15 01:33N 22°36' E 120°17'0 0.0
2014-Oct-15 00:27N 22°36' E 120°17'0 0.0
2014-Oct-14 23:33N 22°36' E 120°17'0 0.0
2014-Oct-14 22:32N 22°36' E 120°17'0 0.0
2014-Oct-14 21:33N 22°36' E 120°17'0 0.0
2014-Oct-14 20:33N 22°36' E 120°17'0 0.0
2014-Oct-14 15:15N 22°36' E 120°17'0 0.0
2014-Oct-14 13:33N 22°36' E 120°17'0 0.0
2014-Oct-14 10:33N 22°36' E 120°17'0 0.0
2014-Oct-14 09:32N 22°36' E 120°17'0 0.0
2014-Oct-14 08:27N 22°36' E 120°17'0 0.0
2014-Oct-14 07:33N 22°36' E 120°17'0 0.0
2014-Oct-14 05:33N 22°36' E 120°17'0 0.0
2014-Oct-14 04:33N 22°36' E 120°17'0 0.0
2014-Oct-14 03:33N 22°36' E 120°17'0 0.0
2014-Oct-14 02:33N 22°36' E 120°17'3 2.9
2014-Oct-14 01:33N 22°37' E 120°15'6 6.4
2014-Oct-14 00:33N 22°37' E 120°08'1512.6
2014-Oct-13 23:23N 22°34' E 119°52'6710.8
2014-Oct-13 17:08N 22°20' E 118°41'711.3
2014-Oct-13 16:30N 22°18' E 118°33'25810.3
2014-Oct-12 15:27N 22°06' E 113°55'7 7.8
2014-Oct-12 14:33N 22°09' E 113°48'1010.2
2014-Oct-12 13:33N 22°19' E 113°48'1110.9
2014-Oct-12 12:33N 22°30' E 113°45'1211.9
2014-Oct-12 11:33N 22°41' E 113°41'1110.8
2014-Oct-12 10:33N 22°50' E 113°35'10 9.9
2014-Oct-12 09:33N 22°60' E 113°32'4 3.4
2014-Oct-12 08:26N 23°03' E 113°30'0 0.0
2014-Oct-12 07:26N 23°03' E 113°30'0 0.0
2014-Oct-12 06:32N 23°03' E 113°30'0 0.0
2014-Oct-12 05:14N 23°03' E 113°30'0 0.0
2014-Oct-12 04:32N 23°03' E 113°30'0 0.0
2014-Oct-12 03:32N 23°03' E 113°30'0 0.0
2014-Oct-12 02:26N 23°03' E 113°30'0 0.0
2014-Oct-12 01:20N 23°03' E 113°30'0 0.0
2014-Oct-12 00:32N 23°03' E 113°30'0 0.0
2014-Oct-11 23:32N 23°03' E 113°30'0 0.0
2014-Oct-11 22:32N 23°03' E 113°30'0 0.0
2014-Oct-11 21:32N 23°03' E 113°30'0 0.0
2014-Oct-11 20:32N 23°03' E 113°30'0 0.0
2014-Oct-11 19:32N 23°03' E 113°30'0 0.0
2014-Oct-11 18:32N 23°03' E 113°30'0 0.0
2014-Oct-11 17:26N 23°03' E 113°30'0 0.0
2014-Oct-11 16:26N 23°03' E 113°30'0 0.0
2014-Oct-11 15:32N 23°03' E 113°30'0 0.0
2014-Oct-11 14:14N 23°03' E 113°30'0 0.0
2014-Oct-11 13:32N 23°03' E 113°30'0 0.0
2014-Oct-11 12:32N 23°03' E 113°30'0 0.0
2014-Oct-11 11:20N 23°03' E 113°30'0 0.0
2014-Oct-11 10:08N 23°03' E 113°30'0 0.0
2014-Oct-11 09:26N 23°03' E 113°30'0 0.0
2014-Oct-11 08:32N 23°03' E 113°30'0 0.0
2014-Oct-11 07:32N 23°03' E 113°30'0 0.0
2014-Oct-11 06:26N 23°03' E 113°30'0 0.0
2014-Oct-11 05:20N 23°03' E 113°30'0 0.0
2014-Oct-11 04:26N 23°03' E 113°30'0 0.0
2014-Oct-11 03:32N 23°03' E 113°30'0 0.0
2014-Oct-11 02:26N 23°03' E 113°30'0 0.0
2014-Oct-11 01:26N 23°03' E 113°30'0 0.0
2014-Oct-11 00:32N 23°03' E 113°30'0 0.0
2014-Oct-10 23:32N 23°03' E 113°30'0 0.0
2014-Oct-10 22:32N 23°03' E 113°30'0 0.0
2014-Oct-10 21:32N 23°03' E 113°30'0 0.0
2014-Oct-10 20:26N 23°03' E 113°30'0 0.0
2014-Oct-10 19:26N 23°03' E 113°30'0 0.0
2014-Oct-10 18:26N 23°03' E 113°30'0 0.0
2014-Oct-10 17:26N 23°03' E 113°30'0 0.0
2014-Oct-10 16:32N 23°03' E 113°30'0 0.0
2014-Oct-10 15:20N 23°03' E 113°30'0 0.0
2014-Oct-10 14:32N 23°03' E 113°30'0 0.0
2014-Oct-10 13:26N 23°03' E 113°30'0 0.0
2014-Oct-10 12:32N 23°03' E 113°30'0 0.0
2014-Oct-10 11:26N 23°03' E 113°30'0 0.0
2014-Oct-10 10:32N 23°03' E 113°30'0 0.0
2014-Oct-10 09:20N 23°03' E 113°30'1 1.4
2014-Oct-10 08:32N 23°02' E 113°31'8 8.4
2014-Oct-10 07:33N 22°54' E 113°34'10 9.7
2014-Oct-10 06:33N 22°46' E 113°39'1110.8
2014-Oct-10 05:30N 22°35' E 113°43'1111.9
2014-Oct-10 04:33N 22°24' E 113°46'1010.3
2014-Oct-10 03:33N 22°14' E 113°48'8 7.8
2014-Oct-10 02:33N 22°06' E 113°50'5 5.1
2014-Oct-10 01:33N 22°04' E 113°54'0 0.0
2014-Oct-09 23:15N 22°04' E 113°54'0 0.0
2014-Oct-09 22:33N 22°04' E 113°54'0 0.1
2014-Oct-09 21:27N 22°04' E 113°55'  

Dump ship's entire track history